Time,TemperatureF,DewpointF,PressureIn,WindDirection,WindDirectionDegrees,WindSpeedMPH,WindSpeedGustMPH,Humidity,HourlyPrecipIn,Conditions,Clouds,dailyrainin,SoftwareType,DateUTC
2013-03-22 00:00:00,14.0,-10.0,-100.00,NNE,25,4.0,12.0,34,-99.99,,,-99.99,,2013-03-22 06:00:00,
2013-03-22 00:43:00,14.0,-10.0,-100.00,NNE,25,4.0,12.0,34,-99.99,,,-99.99,,2013-03-22 06:43:00,
2013-03-22 00:52:00,14.0,-10.0,-100.00,NNE,25,4.0,12.0,34,-99.99,,,-99.99,,2013-03-22 06:52:00,
2013-03-22 01:00:00,13.0,-11.0,-100.00,NE,43,4.0,15.0,32,-99.99,,,-99.99,,2013-03-22 07:00:00,
2013-03-22 01:42:00,13.0,-11.0,-100.00,NE,43,4.0,15.0,32,-99.99,,,-99.99,,2013-03-22 07:42:00,
2013-03-22 01:52:00,13.0,-11.0,-100.00,NE,43,4.0,15.0,32,-99.99,,,-99.99,,2013-03-22 07:52:00,
2013-03-22 02:00:00,12.0,-13.0,-100.00,SE,137,8.0,15.0,30,-99.99,,,-99.99,,2013-03-22 08:00:00,
2013-03-22 02:42:00,12.0,-13.0,-100.00,SE,137,8.0,15.0,30,-99.99,,,-99.99,,2013-03-22 08:42:00,
2013-03-22 02:52:00,12.0,-13.0,-100.00,SE,137,8.0,15.0,30,-99.99,,,-99.99,,2013-03-22 08:52:00,
2013-03-22 03:00:00,13.0,-15.0,-100.00,SE,126,6.0,13.0,28,-99.99,,,-99.99,,2013-03-22 09:00:00,
2013-03-22 03:42:00,13.0,-15.0,-100.00,SE,126,6.0,13.0,28,-99.99,,,-99.99,,2013-03-22 09:42:00,
2013-03-22 03:53:00,13.0,-15.0,-100.00,SE,126,6.0,13.0,28,-99.99,,,-99.99,,2013-03-22 09:53:00,
2013-03-22 04:00:00,12.0,-13.0,-100.00,NE,49,4.0,11.0,31,-99.99,,,-99.99,,2013-03-22 10:00:00,
2013-03-22 04:42:00,12.0,-13.0,-100.00,NE,49,4.0,11.0,31,-99.99,,,-99.99,,2013-03-22 10:42:00,
2013-03-22 04:52:00,12.0,-13.0,-100.00,NE,49,4.0,11.0,31,-99.99,,,-99.99,,2013-03-22 10:52:00,
2013-03-22 05:00:00,15.0,-18.0,-100.00,SSE,157,11.0,23.0,20,-99.99,,,-99.99,,2013-03-22 11:00:00,
2013-03-22 05:42:00,15.0,-18.0,-100.00,SSE,157,11.0,23.0,20,-99.99,,,-99.99,,2013-03-22 11:42:00,
2013-03-22 05:52:00,15.0,-18.0,-100.00,SSE,157,11.0,23.0,20,-99.99,,,-99.99,,2013-03-22 11:52:00,
2013-03-22 06:00:00,15.0,-20.0,-100.00,South,185,13.0,27.0,19,-99.99,,,-99.99,,2013-03-22 12:00:00,
2013-03-22 06:42:00,15.0,-20.0,-100.00,South,185,13.0,27.0,19,-99.99,,,-99.99,,2013-03-22 12:42:00,
2013-03-22 06:52:00,15.0,-20.0,-100.00,South,185,13.0,27.0,19,-99.99,,,-99.99,,2013-03-22 12:52:00,
2013-03-22 07:00:00,14.0,-12.0,-100.00,South,188,15.0,34.0,30,-99.99,,,-99.99,,2013-03-22 13:00:00,
2013-03-22 07:42:00,14.0,-12.0,-100.00,South,188,15.0,34.0,30,-99.99,,,-99.99,,2013-03-22 13:42:00,
2013-03-22 07:52:00,14.0,-12.0,-100.00,South,188,15.0,34.0,30,-99.99,,,-99.99,,2013-03-22 13:52:00,
2013-03-22 08:00:00,13.0,-6.0,-100.00,SSW,198,14.0,36.0,40,-99.99,,,-99.99,,2013-03-22 14:00:00,
2013-03-22 08:43:00,13.0,-6.0,-100.00,SSW,198,14.0,36.0,40,-99.99,,,-99.99,,2013-03-22 14:43:00,
2013-03-22 08:52:00,13.0,-6.0,-100.00,SSW,198,14.0,36.0,40,-99.99,,,-99.99,,2013-03-22 14:52:00,
2013-03-22 09:00:00,12.0,1.0,-100.00,South,190,17.0,32.0,60,-99.99,,,-99.99,,2013-03-22 15:00:00,
2013-03-22 09:43:00,12.0,1.0,-100.00,South,190,17.0,32.0,60,-99.99,,,-99.99,,2013-03-22 15:43:00,
2013-03-22 09:53:00,12.0,1.0,-100.00,South,190,17.0,32.0,60,-99.99,,,-99.99,,2013-03-22 15:53:00,
2013-03-22 10:00:00,13.0,2.0,-100.00,South,186,22.0,38.0,60,-99.99,,,-99.99,,2013-03-22 16:00:00,
2013-03-22 10:42:00,13.0,2.0,-100.00,South,186,22.0,38.0,60,-99.99,,,-99.99,,2013-03-22 16:42:00,
2013-03-22 10:52:00,13.0,2.0,-100.00,South,186,22.0,38.0,60,-99.99,,,-99.99,,2013-03-22 16:52:00,
2013-03-22 11:00:00,14.0,6.0,-100.00,South,176,27.0,45.0,72,-99.99,,,-99.99,,2013-03-22 17:00:00,
2013-03-22 11:42:00,14.0,6.0,-100.00,South,176,27.0,45.0,72,-99.99,,,-99.99,,2013-03-22 17:42:00,
2013-03-22 11:53:00,14.0,6.0,-100.00,South,176,27.0,45.0,72,-99.99,,,-99.99,,2013-03-22 17:53:00,
2013-03-22 12:00:00,17.0,7.0,-100.00,South,182,28.0,55.0,66,-99.99,,,-99.99,,2013-03-22 18:00:00,
2013-03-22 12:42:00,17.0,7.0,-100.00,South,182,28.0,55.0,66,-99.99,,,-99.99,,2013-03-22 18:42:00,
2013-03-22 12:52:00,17.0,7.0,-100.00,South,182,28.0,55.0,66,-99.99,,,-99.99,,2013-03-22 18:52:00,
2013-03-22 13:00:00,17.0,7.0,-100.00,SSW,192,26.0,52.0,62,-99.99,,,-99.99,,2013-03-22 19:00:00,
2013-03-22 13:43:00,17.0,7.0,-100.00,SSW,192,26.0,52.0,62,-99.99,,,-99.99,,2013-03-22 19:43:00,
2013-03-22 13:52:00,17.0,7.0,-100.00,SSW,192,26.0,52.0,62,-99.99,,,-99.99,,2013-03-22 19:52:00,
2013-03-22 14:00:00,19.0,6.0,-100.00,South,189,32.0,67.0,57,-99.99,,,-99.99,,2013-03-22 20:00:00,
2013-03-22 14:43:00,19.0,6.0,-100.00,South,189,32.0,67.0,57,-99.99,,,-99.99,,2013-03-22 20:43:00,
2013-03-22 14:52:00,19.0,6.0,-100.00,South,189,32.0,67.0,57,-99.99,,,-99.99,,2013-03-22 20:52:00,
2013-03-22 15:00:00,20.0,4.0,-100.00,South,190,29.0,58.0,49,-99.99,,,-99.99,,2013-03-22 21:00:00,
2013-03-22 15:43:00,20.0,4.0,-100.00,South,190,29.0,58.0,49,-99.99,,,-99.99,,2013-03-22 21:43:00,
2013-03-22 15:53:00,20.0,4.0,-100.00,South,190,29.0,58.0,49,-99.99,,,-99.99,,2013-03-22 21:53:00,
2013-03-22 16:00:00,21.0,1.0,-100.00,SSW,195,27.0,54.0,42,-99.99,,,-99.99,,2013-03-22 22:00:00,
2013-03-22 16:43:00,21.0,1.0,-100.00,SSW,195,27.0,54.0,42,-99.99,,,-99.99,,2013-03-22 22:43:00,
2013-03-22 16:53:00,21.0,1.0,-100.00,SSW,195,27.0,54.0,42,-99.99,,,-99.99,,2013-03-22 22:53:00,
2013-03-22 17:00:00,21.0,0.0,-100.00,SSW,200,25.0,62.0,39,-99.99,,,-99.99,,2013-03-22 23:00:00,
2013-03-22 17:42:00,21.0,0.0,-100.00,SSW,200,25.0,62.0,39,-99.99,,,-99.99,,2013-03-22 23:42:00,
2013-03-22 17:52:00,21.0,0.0,-100.00,SSW,200,25.0,62.0,39,-99.99,,,-99.99,,2013-03-22 23:52:00,
2013-03-22 18:00:00,20.0,-2.0,-100.00,SSW,193,29.0,64.0,36,-99.99,,,-99.99,,2013-03-23 00:00:00,
2013-03-22 18:42:00,20.0,-2.0,-100.00,SSW,193,29.0,64.0,36,-99.99,,,-99.99,,2013-03-23 00:42:00,
2013-03-22 18:52:00,20.0,-2.0,-100.00,SSW,193,29.0,64.0,36,-99.99,,,-99.99,,2013-03-23 00:52:00,
2013-03-22 19:00:00,20.0,-5.0,-100.00,SSW,197,26.0,48.0,31,-99.99,,,-99.99,,2013-03-23 01:00:00,
2013-03-22 19:43:00,20.0,-5.0,-100.00,SSW,197,26.0,48.0,31,-99.99,,,-99.99,,2013-03-23 01:43:00,
2013-03-22 19:52:00,20.0,-5.0,-100.00,SSW,197,26.0,48.0,31,-99.99,,,-99.99,,2013-03-23 01:52:00,
2013-03-22 20:00:00,19.0,-6.0,-100.00,SSW,203,23.0,60.0,32,-99.99,,,-99.99,,2013-03-23 02:00:00,
2013-03-22 20:42:00,19.0,-6.0,-100.00,SSW,203,23.0,60.0,32,-99.99,,,-99.99,,2013-03-23 02:42:00,
2013-03-22 20:52:00,19.0,-6.0,-100.00,SSW,203,23.0,60.0,32,-99.99,,,-99.99,,2013-03-23 02:52:00,
2013-03-22 21:00:00,11.0,3.0,-100.00,NNW,339,27.0,43.0,70,-99.99,,,-99.99,,2013-03-23 03:00:00,
2013-03-22 21:43:00,11.0,3.0,-100.00,NNW,339,27.0,43.0,70,-99.99,,,-99.99,,2013-03-23 03:43:00,
2013-03-22 21:53:00,11.0,3.0,-100.00,NNW,339,27.0,43.0,70,-99.99,,,-99.99,,2013-03-23 03:53:00,
2013-03-22 22:00:00,7.0,5.0,-100.00,North,354,18.0,30.0,89,-99.99,,,-99.99,,2013-03-23 04:00:00,
2013-03-22 22:43:00,7.0,5.0,-100.00,North,354,18.0,30.0,89,-99.99,,,-99.99,,2013-03-23 04:43:00,
2013-03-22 22:53:00,7.0,5.0,-100.00,North,354,18.0,30.0,89,-99.99,,,-99.99,,2013-03-23 04:53:00,
2013-03-22 23:00:00,7.0,4.0,-100.00,SE,140,8.0,13.0,87,-99.99,,,-99.99,,2013-03-23 05:00:00,
2013-03-22 23:42:00,7.0,4.0,-100.00,SE,140,8.0,13.0,87,-99.99,,,-99.99,,2013-03-23 05:42:00,
2013-03-22 23:52:00,7.0,4.0,-100.00,SE,140,8.0,13.0,87,-99.99,,,-99.99,,2013-03-23 05:52:00,